Time;durP1;ratioP1;P1;durP2;ratioP2;P2;SDS_P1;SDS_P2;PMS_P1;PMS_P2;Temp;Humidity;BMP_temperature;BMP_pressure;BME280_temperature;BME280_humidity;BME280_pressure;Samples;Min_cycle;Max_cycle;Signal;HPM_P1;HPM_P2
2022/04/09 00:00:56;;;;;;;5.85;5.40;;;;;;;;;;5073559;28;20097;-59
2022/04/09 00:03:21;;;;;;;6.53;6.03;;;;;;;;;;5072595;28;20040;-59
2022/04/09 00:05:47;;;;;;;6.07;5.65;;;;;;;;;;5072902;28;20029;-58
2022/04/09 00:08:13;;;;;;;6.05;5.60;;;;;;;;;;5076956;28;20552;-58
2022/04/09 00:10:39;;;;;;;6.93;5.90;;;;;;;;;;5081112;28;20616;-58
2022/04/09 00:13:04;;;;;;;5.38;4.97;;;;;;;;;;5078885;28;20043;-59
2022/04/09 00:15:30;;;;;;;6.45;5.95;;;;;;;;;;5078084;28;20028;-58
2022/04/09 00:17:55;;;;;;;5.82;5.32;;;;;;;;;;5071874;28;20039;-59
2022/04/09 00:20:21;;;;;;;6.43;5.93;;;;;;;;;;5075031;28;20038;-59
2022/04/09 00:22:46;;;;;;;5.55;5.15;;;;;;;;;;5075063;28;20028;-58
2022/04/09 00:25:14;;;;;;;6.07;5.57;;;;;;;;;;5077242;28;20028;-59
2022/04/09 00:27:39;;;;;;;6.13;5.72;;;;;;;;;;5074475;28;20028;-58
2022/04/09 00:30:08;;;;;;;8.68;5.50;;;;;;;;;;5075273;28;20032;-60
2022/04/09 00:32:34;;;;;;;5.25;4.85;;;;;;;;;;5073595;28;20376;-59
2022/04/09 00:34:59;;;;;;;6.53;5.93;;;;;;;;;;5077136;28;20099;-59
2022/04/09 00:37:25;;;;;;;5.72;5.32;;;;;;;;;;5075324;28;20028;-58
2022/04/09 00:39:50;;;;;;;5.35;4.95;;;;;;;;;;5076200;28;20086;-59
2022/04/09 00:42:17;;;;;;;5.85;5.32;;;;;;;;;;5075519;28;20487;-59
2022/04/09 00:44:42;;;;;;;6.03;5.50;;;;;;;;;;5074931;28;20068;-58
2022/04/09 00:47:09;;;;;;;5.65;5.25;;;;;;;;;;5075081;28;20572;-60
2022/04/09 00:49:37;;;;;;;5.68;5.28;;;;;;;;;;5076156;28;20127;-59
2022/04/09 00:52:04;;;;;;;6.72;6.05;;;;;;;;;;5074465;28;20042;-59
2022/04/09 00:54:31;;;;;;;5.72;5.22;;;;;;;;;;5070891;28;21533;-59
2022/04/09 00:57:04;;;;;;;5.75;5.35;;;;;;;;;;5067512;28;20032;-59
2022/04/09 00:59:35;;;;;;;6.35;5.85;;;;;;;;;;5070417;28;20044;-59
2022/04/09 01:02:00;;;;;;;7.17;6.57;;;;;;;;;;5069027;28;20033;-59
2022/04/09 01:04:27;;;;;;;5.18;4.78;;;;;;;;;;5066396;28;20652;-59
2022/04/09 01:06:53;;;;;;;6.80;5.22;;;;;;;;;;5072155;28;20036;-58
2022/04/09 01:09:18;;;;;;;6.30;5.82;;;;;;;;;;5070277;28;20450;-59
2022/04/09 01:11:44;;;;;;;6.28;5.78;;;;;;;;;;5069253;28;20093;-58
2022/04/09 01:14:13;;;;;;;6.40;5.90;;;;;;;;;;5071029;28;20052;-59
2022/04/09 01:16:39;;;;;;;6.22;5.72;;;;;;;;;;5051461;28;20389;-58
2022/04/09 01:19:05;;;;;;;5.68;5.28;;;;;;;;;;5070789;28;20048;-58
2022/04/09 01:21:31;;;;;;;6.18;5.68;;;;;;;;;;5066929;28;20044;-58
2022/04/09 01:23:56;;;;;;;5.57;5.18;;;;;;;;;;5068389;28;20043;-58
2022/04/09 01:26:22;;;;;;;5.88;5.38;;;;;;;;;;5067310;28;20043;-59
2022/04/09 01:28:48;;;;;;;6.32;5.72;;;;;;;;;;5066004;28;20066;-60
2022/04/09 01:31:15;;;;;;;4.97;4.57;;;;;;;;;;5071308;28;20109;-59
2022/04/09 01:33:41;;;;;;;5.53;5.13;;;;;;;;;;5065986;28;20036;-59
2022/04/09 01:36:07;;;;;;;5.57;5.07;;;;;;;;;;5071309;28;20092;-59
2022/04/09 01:38:35;;;;;;;6.20;5.70;;;;;;;;;;5067588;28;20054;-60
2022/04/09 01:41:04;;;;;;;6.35;5.85;;;;;;;;;;5068714;28;20086;-59
2022/04/09 01:43:30;;;;;;;7.40;6.80;;;;;;;;;;5068322;28;20119;-60
2022/04/09 01:45:56;;;;;;;6.13;5.63;;;;;;;;;;5067333;28;20048;-58
2022/04/09 01:48:21;;;;;;;6.53;6.03;;;;;;;;;;5067824;28;20414;-59
2022/04/09 01:50:47;;;;;;;6.45;5.95;;;;;;;;;;5067204;28;20043;-60
2022/04/09 01:53:13;;;;;;;6.25;5.75;;;;;;;;;;5067121;28;20040;-59
2022/04/09 01:55:39;;;;;;;6.05;5.60;;;;;;;;;;5068822;28;20037;-59
2022/04/09 01:58:05;;;;;;;5.72;5.28;;;;;;;;;;5070674;28;20508;-59
2022/04/09 02:00:30;;;;;;;7.20;6.60;;;;;;;;;;5068081;28;20028;-60
2022/04/09 02:02:56;;;;;;;5.30;4.90;;;;;;;;;;5075530;28;20486;-59
2022/04/09 02:05:21;;;;;;;6.03;5.53;;;;;;;;;;5073894;28;20037;-59
2022/04/09 02:07:47;;;;;;;7.00;5.50;;;;;;;;;;5074228;28;20036;-60
2022/04/09 02:10:14;;;;;;;6.15;5.65;;;;;;;;;;5073249;28;20433;-59
2022/04/09 02:12:41;;;;;;;6.20;5.70;;;;;;;;;;5073460;28;20481;-59
2022/04/09 02:15:08;;;;;;;7.32;6.72;;;;;;;;;;5077785;28;20032;-59
2022/04/09 02:17:38;;;;;;;6.25;5.65;;;;;;;;;;5075527;28;20503;-59
2022/04/09 02:20:05;;;;;;;5.40;5.00;;;;;;;;;;5076108;28;20082;-59
2022/04/09 02:22:38;;;;;;;7.90;6.47;;;;;;;;;;5074091;28;20094;-60
2022/04/09 02:25:04;;;;;;;5.40;5.00;;;;;;;;;;5074766;28;20033;-58
2022/04/09 02:27:30;;;;;;;5.82;5.32;;;;;;;;;;5073469;28;20033;-59
2022/04/09 02:29:55;;;;;;;6.88;6.30;;;;;;;;;;5073473;28;20532;-58
2022/04/09 02:32:21;;;;;;;5.80;5.35;;;;;;;;;;5070606;28;20040;-57
2022/04/09 02:34:46;;;;;;;6.65;6.05;;;;;;;;;;5074584;28;20039;-59
2022/04/09 02:37:12;;;;;;;7.07;6.53;;;;;;;;;;5076978;28;20039;-60
2022/04/09 02:39:37;;;;;;;6.32;5.82;;;;;;;;;;5074067;28;20036;-59
2022/04/09 02:42:03;;;;;;;6.53;5.93;;;;;;;;;;5070867;28;20040;-60
2022/04/09 02:44:29;;;;;;;7.72;5.78;;;;;;;;;;5073032;28;20025;-59
2022/04/09 02:46:55;;;;;;;5.70;5.30;;;;;;;;;;5073455;28;20044;-59
2022/04/09 02:49:21;;;;;;;6.18;5.68;;;;;;;;;;5076840;28;20043;-60
2022/04/09 02:51:46;;;;;;;5.70;5.22;;;;;;;;;;5075402;28;20067;-59
2022/04/09 02:54:16;;;;;;;6.13;5.63;;;;;;;;;;5074272;28;20460;-59
2022/04/09 02:56:46;;;;;;;5.90;5.50;;;;;;;;;;5075570;28;20076;-59
2022/04/09 02:59:13;;;;;;;7.20;6.70;;;;;;;;;;5075784;28;20453;-60
2022/04/09 03:01:43;;;;;;;6.15;5.65;;;;;;;;;;5076678;28;20473;-60
2022/04/09 03:04:09;;;;;;;5.72;5.22;;;;;;;;;;5073435;28;20090;-59
2022/04/09 03:06:34;;;;;;;7.18;6.47;;;;;;;;;;5073906;28;20059;-58
2022/04/09 03:08:59;;;;;;;6.53;5.80;;;;;;;;;;5076628;28;20567;-60
2022/04/09 03:11:25;;;;;;;6.68;6.15;;;;;;;;;;5071818;28;20032;-59
2022/04/09 03:13:50;;;;;;;6.10;5.60;;;;;;;;;;5071596;28;20037;-58
2022/04/09 03:16:16;;;;;;;6.68;6.18;;;;;;;;;;5071936;28;20034;-58
2022/04/09 03:18:41;;;;;;;6.38;5.80;;;;;;;;;;5069234;28;20481;-60
2022/04/09 03:21:06;;;;;;;7.32;6.72;;;;;;;;;;5069797;28;20557;-60
2022/04/09 03:23:32;;;;;;;5.75;5.30;;;;;;;;;;5073712;28;20159;-59
2022/04/09 03:25:57;;;;;;;7.47;6.75;;;;;;;;;;5070125;28;20358;-60
2022/04/09 03:28:23;;;;;;;6.05;5.50;;;;;;;;;;5070202;28;20593;-60
2022/04/09 03:30:48;;;;;;;6.32;5.82;;;;;;;;;;5073301;28;20060;-59
2022/04/09 03:33:14;;;;;;;6.22;5.72;;;;;;;;;;5070510;28;20036;-60
2022/04/09 03:35:40;;;;;;;6.97;6.35;;;;;;;;;;5075676;28;20036;-58
2022/04/09 03:38:05;;;;;;;6.47;5.97;;;;;;;;;;5072705;28;20512;-59
2022/04/09 03:40:31;;;;;;;7.88;5.47;;;;;;;;;;5071203;28;20037;-58
2022/04/09 03:42:56;;;;;;;6.10;5.65;;;;;;;;;;5069689;28;20040;-59
2022/04/09 03:45:21;;;;;;;6.38;5.88;;;;;;;;;;5067804;28;20129;-59
2022/04/09 03:47:47;;;;;;;6.85;6.25;;;;;;;;;;5070803;28;20032;-59
2022/04/09 03:50:12;;;;;;;6.25;5.75;;;;;;;;;;5069343;28;20466;-59
2022/04/09 03:52:38;;;;;;;6.47;5.97;;;;;;;;;;5069322;28;20052;-59
2022/04/09 03:55:04;;;;;;;5.78;5.28;;;;;;;;;;5071880;28;20036;-58
2022/04/09 03:57:30;;;;;;;5.63;5.13;;;;;;;;;;5072868;28;20051;-58
2022/04/09 03:59:57;;;;;;;5.60;5.20;;;;;;;;;;5074254;28;20037;-58
2022/04/09 04:02:23;;;;;;;10.73;5.40;;;;;;;;;;5071946;28;20024;-58
2022/04/09 04:04:48;;;;;;;5.00;4.60;;;;;;;;;;5069266;28;20241;-58
2022/04/09 04:07:14;;;;;;;4.85;4.28;;;;;;;;;;5070946;28;20138;-59
2022/04/09 04:09:39;;;;;;;6.35;5.85;;;;;;;;;;5073335;28;20181;-59
2022/04/09 04:12:05;;;;;;;5.47;4.97;;;;;;;;;;5069900;28;20056;-59
2022/04/09 04:14:31;;;;;;;5.32;4.93;;;;;;;;;;5072817;28;20025;-59
2022/04/09 04:16:56;;;;;;;5.65;5.15;;;;;;;;;;5074571;28;20024;-49
2022/04/09 04:19:22;;;;;;;5.63;5.22;;;;;;;;;;5074631;28;20032;-48
2022/04/09 04:21:47;;;;;;;5.90;5.43;;;;;;;;;;5070887;28;20382;-48
2022/04/09 04:24:12;;;;;;;4.80;4.40;;;;;;;;;;5074923;28;20040;-48
2022/04/09 04:26:38;;;;;;;7.13;5.38;;;;;;;;;;5074440;28;20054;-48
2022/04/09 04:29:03;;;;;;;6.25;5.78;;;;;;;;;;5075593;28;20036;-47
2022/04/09 04:31:29;;;;;;;6.03;5.53;;;;;;;;;;5070007;28;20436;-48
2022/04/09 04:33:54;;;;;;;5.85;5.35;;;;;;;;;;5070712;28;20048;-49
2022/04/09 04:36:19;;;;;;;5.93;5.53;;;;;;;;;;5072375;28;20028;-48
2022/04/09 04:38:46;;;;;;;6.68;6.18;;;;;;;;;;5078647;28;20036;-50
2022/04/09 04:41:12;;;;;;;6.30;5.80;;;;;;;;;;5072132;28;20116;-49
2022/04/09 04:43:37;;;;;;;6.80;5.90;;;;;;;;;;5081586;28;20151;-48
2022/04/09 04:46:03;;;;;;;6.78;6.18;;;;;;;;;;5073014;28;20434;-48
2022/04/09 04:48:28;;;;;;;5.93;5.43;;;;;;;;;;5069878;28;20028;-50
2022/04/09 04:50:54;;;;;;;6.35;5.78;;;;;;;;;;5070650;28;20038;-49
2022/04/09 04:53:19;;;;;;;6.30;5.80;;;;;;;;;;5072617;28;20036;-51
2022/04/09 04:55:44;;;;;;;5.65;5.15;;;;;;;;;;5069900;28;20024;-51
2022/04/09 04:58:10;;;;;;;7.50;5.47;;;;;;;;;;5072211;28;20185;-58
2022/04/09 05:00:35;;;;;;;5.40;5.00;;;;;;;;;;5066570;28;20028;-59
2022/04/09 05:03:01;;;;;;;6.00;5.50;;;;;;;;;;5067485;28;20640;-59
2022/04/09 05:05:26;;;;;;;6.93;6.32;;;;;;;;;;5075207;28;20051;-58
2022/04/09 05:07:53;;;;;;;5.30;4.90;;;;;;;;;;5075950;28;20024;-59
2022/04/09 05:10:20;;;;;;;5.57;5.13;;;;;;;;;;5074051;28;20056;-58
2022/04/09 05:12:46;;;;;;;5.57;5.07;;;;;;;;;;5073374;28;20524;-59
2022/04/09 05:15:14;;;;;;;6.78;5.20;;;;;;;;;;5070108;28;20046;-58
2022/04/09 05:17:39;;;;;;;5.43;4.95;;;;;;;;;;5066151;28;20055;-58
2022/04/09 05:20:06;;;;;;;5.65;5.18;;;;;;;;;;5068005;28;20033;-59
2022/04/09 05:22:32;;;;;;;6.32;5.82;;;;;;;;;;5073847;28;20025;-59
2022/04/09 05:24:58;;;;;;;6.82;6.22;;;;;;;;;;5073474;28;20845;-51
2022/04/09 05:27:24;;;;;;;5.82;5.43;;;;;;;;;;5073475;28;20028;-47
2022/04/09 05:29:50;;;;;;;5.30;4.85;;;;;;;;;;5071951;28;20127;-47
2022/04/09 05:32:16;;;;;;;5.03;4.63;;;;;;;;;;5069096;28;20028;-48
2022/04/09 05:34:42;;;;;;;5.70;5.20;;;;;;;;;;5072069;28;20410;-48
2022/04/09 05:37:07;;;;;;;5.47;5.07;;;;;;;;;;5073393;28;20089;-48
2022/04/09 05:39:33;;;;;;;5.57;4.82;;;;;;;;;;5074183;28;20152;-60
2022/04/09 05:41:58;;;;;;;5.90;5.50;;;;;;;;;;5075017;28;20035;-58
2022/04/09 05:44:24;;;;;;;5.22;4.72;;;;;;;;;;5070947;28;20036;-61
2022/04/09 05:46:49;;;;;;;6.55;5.10;;;;;;;;;;5072851;28;20862;-47
2022/04/09 05:49:15;;;;;;;5.13;4.72;;;;;;;;;;5073555;28;20039;-46
2022/04/09 05:51:40;;;;;;;5.30;4.90;;;;;;;;;;5073544;28;20035;-59
2022/04/09 05:54:05;;;;;;;5.03;4.63;;;;;;;;;;5068848;28;20047;-60
2022/04/09 05:56:31;;;;;;;6.00;5.35;;;;;;;;;;5069537;28;20419;-59
2022/04/09 05:58:56;;;;;;;4.82;4.43;;;;;;;;;;5072625;28;20042;-48
2022/04/09 06:01:22;;;;;;;5.05;4.65;;;;;;;;;;5068697;28;20127;-48
2022/04/09 06:03:47;;;;;;;5.75;5.20;;;;;;;;;;5070936;28;20032;-46
2022/04/09 06:06:13;;;;;;;5.22;4.82;;;;;;;;;;5071991;28;20060;-46
2022/04/09 06:08:38;;;;;;;4.85;4.45;;;;;;;;;;5071511;28;20088;-59
2022/04/09 06:11:05;;;;;;;5.95;5.45;;;;;;;;;;5062145;28;20117;-47
2022/04/09 06:13:30;;;;;;;5.15;4.75;;;;;;;;;;5074964;28;20411;-46
2022/04/09 06:15:56;;;;;;;4.88;4.47;;;;;;;;;;5068122;28;20059;-46
2022/04/09 06:18:21;;;;;;;5.18;4.68;;;;;;;;;;5070440;28;20028;-49
2022/04/09 06:20:47;;;;;;;5.53;5.13;;;;;;;;;;5071791;28;20340;-47
2022/04/09 06:23:12;;;;;;;5.40;5.00;;;;;;;;;;5069992;28;20029;-46
2022/04/09 06:25:38;;;;;;;5.00;4.60;;;;;;;;;;5072031;28;20032;-46
2022/04/09 06:28:03;;;;;;;5.70;5.20;;;;;;;;;;5071590;28;20027;-51
2022/04/09 06:30:29;;;;;;;5.13;4.72;;;;;;;;;;5071930;28;20040;-46
2022/04/09 06:32:54;;;;;;;5.28;4.88;;;;;;;;;;5068947;28;20114;-59
2022/04/09 06:35:21;;;;;;;5.65;5.20;;;;;;;;;;5064124;28;20487;-59
2022/04/09 06:37:46;;;;;;;4.72;4.32;;;;;;;;;;5074009;28;20502;-48
2022/04/09 06:40:12;;;;;;;4.50;4.15;;;;;;;;;;5068971;28;20447;-47
2022/04/09 06:42:39;;;;;;;11.02;5.95;;;;;;;;;;5049608;28;20029;-48
2022/04/09 06:45:05;;;;;;;5.75;5.30;;;;;;;;;;5067405;28;20036;-59
2022/04/09 06:47:31;;;;;;;5.53;5.07;;;;;;;;;;5078502;28;20024;-59
2022/04/09 06:49:57;;;;;;;5.90;5.32;;;;;;;;;;5071770;28;20850;-59
2022/04/09 06:52:23;;;;;;;5.78;5.38;;;;;;;;;;5075909;28;20027;-59
2022/04/09 06:54:48;;;;;;;4.80;4.40;;;;;;;;;;5071345;28;20067;-59
2022/04/09 06:57:14;;;;;;;5.43;5.03;;;;;;;;;;5072701;28;20574;-47
2022/04/09 06:59:39;;;;;;;5.93;5.43;;;;;;;;;;5071770;28;20048;-46
2022/04/09 07:02:04;;;;;;;6.20;5.65;;;;;;;;;;5072112;28;20059;-47
2022/04/09 07:04:30;;;;;;;4.75;4.35;;;;;;;;;;5079292;28;20044;-48
2022/04/09 07:06:55;;;;;;;5.38;4.97;;;;;;;;;;5077722;28;20032;-50
2022/04/09 07:09:20;;;;;;;6.00;5.57;;;;;;;;;;5077719;28;20039;-51
2022/04/09 07:11:46;;;;;;;4.97;4.57;;;;;;;;;;5080176;28;20094;-58
2022/04/09 07:14:11;;;;;;;5.05;4.65;;;;;;;;;;5077282;28;20571;-59
2022/04/09 07:16:38;;;;;;;5.72;5.22;;;;;;;;;;5069516;28;20032;-47
2022/04/09 07:19:07;;;;;;;4.80;4.40;;;;;;;;;;5075825;28;20511;-46
2022/04/09 07:21:32;;;;;;;5.03;4.63;;;;;;;;;;5072701;28;20151;-59
2022/04/09 07:23:58;;;;;;;5.45;4.95;;;;;;;;;;5076726;28;20119;-59
2022/04/09 07:26:23;;;;;;;5.63;5.22;;;;;;;;;;5068990;28;20036;-59
2022/04/09 07:28:49;;;;;;;5.32;4.93;;;;;;;;;;5073265;28;20032;-59
2022/04/09 07:31:14;;;;;;;5.63;5.07;;;;;;;;;;5074292;28;20388;-46
2022/04/09 07:33:40;;;;;;;5.75;5.32;;;;;;;;;;5073590;28;20090;-46
2022/04/09 07:36:05;;;;;;;5.30;4.90;;;;;;;;;;5073998;28;20028;-48
2022/04/09 07:38:31;;;;;;;5.07;4.68;;;;;;;;;;5072909;28;20047;-46
2022/04/09 07:40:56;;;;;;;4.90;4.50;;;;;;;;;;5069789;28;20047;-59
2022/04/09 07:43:22;;;;;;;8.32;5.15;;;;;;;;;;5075094;28;20032;-46
2022/04/09 07:45:48;;;;;;;5.15;4.75;;;;;;;;;;5077674;28;20051;-47
2022/04/09 07:48:14;;;;;;;4.80;4.40;;;;;;;;;;5070948;28;20028;-46
2022/04/09 07:50:39;;;;;;;5.43;5.03;;;;;;;;;;5073979;28;20047;-49
2022/04/09 07:53:07;;;;;;;5.25;4.75;;;;;;;;;;5076168;28;20038;-59
2022/04/09 07:55:33;;;;;;;6.18;5.68;;;;;;;;;;5073644;28;20453;-46
2022/04/09 07:57:59;;;;;;;4.90;4.50;;;;;;;;;;5069737;28;20056;-47
2022/04/09 08:00:25;;;;;;;5.20;4.80;;;;;;;;;;5072169;28;20032;-46
2022/04/09 08:02:50;;;;;;;5.43;5.03;;;;;;;;;;5070944;28;20415;-47
2022/04/09 08:05:18;;;;;;;7.07;6.57;;;;;;;;;;5075222;28;20115;-47
2022/04/09 08:07:44;;;;;;;6.72;5.82;;;;;;;;;;5072185;28;20590;-46
2022/04/09 08:10:11;;;;;;;5.10;4.70;;;;;;;;;;5075782;28;20042;-47
2022/04/09 08:12:37;;;;;;;7.15;6.65;;;;;;;;;;5071945;28;20046;-62
2022/04/09 08:15:04;;;;;;;8.50;7.50;;;;;;;;;;5073226;28;20024;-48
2022/04/09 08:17:29;;;;;;;8.63;8.07;;;;;;;;;;5070529;28;20051;-46
2022/04/09 08:19:56;;;;;;;10.07;9.27;;;;;;;;;;5071739;28;20075;-60
2022/04/09 08:22:22;;;;;;;9.07;8.48;;;;;;;;;;5073368;28;20111;-60
2022/04/09 08:24:48;;;;;;;10.35;9.65;;;;;;;;;;5074512;28;20401;-47
2022/04/09 08:27:14;;;;;;;8.98;8.38;;;;;;;;;;5069139;28;20090;-47
2022/04/09 08:29:40;;;;;;;9.18;8.57;;;;;;;;;;5072318;28;20037;-59
2022/04/09 08:32:06;;;;;;;11.15;9.98;;;;;;;;;;5068252;28;20129;-60
2022/04/09 08:34:35;;;;;;;10.70;10.00;;;;;;;;;;5071562;28;20028;-59
2022/04/09 08:37:01;;;;;;;11.15;10.45;;;;;;;;;;5069409;28;20029;-46
2022/04/09 08:39:27;;;;;;;12.93;9.35;;;;;;;;;;5072087;28;20031;-46
2022/04/09 08:41:53;;;;;;;8.90;8.07;;;;;;;;;;5071418;28;20373;-60
2022/04/09 08:44:19;;;;;;;8.40;7.90;;;;;;;;;;5073444;28;20493;-47
2022/04/09 08:46:46;;;;;;;10.77;7.40;;;;;;;;;;5073629;28;21031;-47
2022/04/09 08:49:12;;;;;;;6.68;6.15;;;;;;;;;;5071913;28;20465;-46
2022/04/09 08:51:38;;;;;;;8.63;7.93;;;;;;;;;;5069566;28;20040;-60
2022/04/09 08:54:04;;;;;;;7.78;7.18;;;;;;;;;;5071130;28;20044;-49
2022/04/09 08:56:33;;;;;;;7.72;7.22;;;;;;;;;;5072616;28;20028;-47
2022/04/09 08:58:59;;;;;;;10.18;8.20;;;;;;;;;;5069359;28;20035;-46
2022/04/09 09:01:25;;;;;;;7.88;7.25;;;;;;;;;;5070095;28;20033;-59
2022/04/09 09:03:52;;;;;;;7.55;7.05;;;;;;;;;;5066192;28;20024;-59
2022/04/09 09:06:28;;;;;;;8.13;7.63;;;;;;;;;;5071012;28;20024;-60
2022/04/09 09:08:55;;;;;;;9.75;9.15;;;;;;;;;;5066660;28;20055;-46
2022/04/09 09:11:21;;;;;;;8.55;8.05;;;;;;;;;;5069815;28;20047;-59
2022/04/09 09:13:52;;;;;;;8.18;7.68;;;;;;;;;;5069681;28;20063;-60
2022/04/09 09:16:28;;;;;;;6.90;6.40;;;;;;;;;;5068259;28;20032;-47
2022/04/09 09:18:55;;;;;;;7.80;7.30;;;;;;;;;;5073896;28;20032;-45
2022/04/09 09:21:23;;;;;;;7.07;6.47;;;;;;;;;;5069381;28;20036;-59
2022/04/09 09:23:50;;;;;;;5.75;5.35;;;;;;;;;;5067227;28;20074;-59
2022/04/09 09:26:25;;;;;;;7.63;7.13;;;;;;;;;;5068526;28;20514;-59
2022/04/09 09:28:55;;;;;;;8.55;7.90;;;;;;;;;;5073298;28;20037;-59
2022/04/09 09:31:44;;;;;;;7.40;6.70;;;;;;;;;;5068921;28;20049;-48
2022/04/09 09:34:15;;;;;;;6.00;5.60;;;;;;;;;;5070509;28;20032;-58
2022/04/09 09:36:43;;;;;;;7.40;6.90;;;;;;;;;;5071321;28;20032;-49
2022/04/09 09:39:10;;;;;;;5.93;5.53;;;;;;;;;;5072825;28;20064;-47
2022/04/09 09:41:55;;;;;;;6.53;6.03;;;;;;;;;;5069831;28;20068;-59
2022/04/09 09:44:23;;;;;;;12.50;5.88;;;;;;;;;;5070542;28;20090;-49
2022/04/09 09:46:50;;;;;;;5.90;5.50;;;;;;;;;;5069520;28;20042;-47
2022/04/09 09:49:17;;;;;;;5.85;5.45;;;;;;;;;;5072194;28;20535;-46
2022/04/09 09:51:43;;;;;;;5.68;5.28;;;;;;;;;;5071092;28;20119;-48
2022/04/09 09:54:11;;;;;;;6.43;5.93;;;;;;;;;;5071494;28;20115;-47
2022/04/09 09:56:42;;;;;;;6.65;6.15;;;;;;;;;;5068260;28;20082;-48
2022/04/09 09:59:10;;;;;;;6.38;5.97;;;;;;;;;;5069685;28;20041;-50
2022/04/09 10:01:40;;;;;;;7.45;6.95;;;;;;;;;;5069626;28;20342;-47
2022/04/09 10:04:08;;;;;;;6.85;6.35;;;;;;;;;;5074098;28;20082;-58
2022/04/09 10:06:36;;;;;;;5.55;5.15;;;;;;;;;;5071334;28;20082;-60
2022/04/09 10:09:06;;;;;;;5.95;5.53;;;;;;;;;;5074106;28;20039;-59
2022/04/09 10:11:50;;;;;;;7.88;7.38;;;;;;;;;;5066827;28;20032;-59
2022/04/09 10:14:22;;;;;;;5.88;5.47;;;;;;;;;;5072026;28;20028;-60
2022/04/09 10:16:50;;;;;;;7.57;6.97;;;;;;;;;;5069475;28;20512;-46
2022/04/09 10:19:17;;;;;;;6.47;6.05;;;;;;;;;;5072384;28;20029;-58
2022/04/09 10:21:46;;;;;;;7.32;6.80;;;;;;;;;;5075745;28;20040;-46
2022/04/09 10:24:18;;;;;;;9.50;8.90;;;;;;;;;;5077941;28;20485;-59
2022/04/09 10:26:44;;;;;;;9.13;8.23;;;;;;;;;;5080004;28;20365;-59
2022/04/09 10:29:10;;;;;;;15.93;15.02;;;;;;;;;;5079318;28;20032;-51
2022/04/09 10:31:38;;;;;;;9.20;8.60;;;;;;;;;;5079870;28;20062;-48
2022/04/09 10:34:07;;;;;;;23.15;21.88;;;;;;;;;;5077055;28;20062;-47
2022/04/09 10:36:44;;;;;;;16.38;15.48;;;;;;;;;;5078199;28;20032;-60
2022/04/09 10:39:23;;;;;;;24.77;23.48;;;;;;;;;;5078715;28;20365;-47
2022/04/09 10:41:56;;;;;;;23.10;21.88;;;;;;;;;;5078827;28;20060;-60
2022/04/09 10:44:42;;;;;;;13.77;13.00;;;;;;;;;;5077964;28;20028;-46
2022/04/09 10:47:08;;;;;;;24.50;23.17;;;;;;;;;;5076805;28;20046;-46
2022/04/09 10:49:34;;;;;;;29.40;27.85;;;;;;;;;;5076849;28;20373;-46
2022/04/09 10:52:11;;;;;;;13.95;13.13;;;;;;;;;;5070889;28;20478;-48
2022/04/09 10:54:38;;;;;;;15.18;14.27;;;;;;;;;;5073934;28;20445;-59
2022/04/09 10:57:08;;;;;;;16.30;15.40;;;;;;;;;;5072513;28;20039;-59
2022/04/09 10:59:34;;;;;;;21.58;20.38;;;;;;;;;;5070008;28;20131;-46
2022/04/09 11:02:00;;;;;;;24.15;22.83;;;;;;;;;;5073558;28;20115;-46
2022/04/09 11:07:19;;;;;;;13.48;12.57;;;;;;;;;;5074316;28;20036;-57
2022/04/09 11:09:59;;;;;;;16.95;16.00;;;;;;;;;;5074544;28;20032;-58
2022/04/09 11:12:39;;;;;;;9.57;8.98;;;;;;;;;;5073023;28;20055;-60
2022/04/09 11:15:10;;;;;;;5.10;4.70;;;;;;;;;;5076793;28;20051;-50
2022/04/09 11:17:39;;;;;;;4.78;4.38;;;;;;;;;;5075514;28;20120;-59
2022/04/09 11:20:10;;;;;;;4.93;4.53;;;;;;;;;;5076921;28;20501;-47
2022/04/09 11:22:47;;;;;;;4.82;4.43;;;;;;;;;;5076744;28;20485;-46
2022/04/09 11:25:21;;;;;;;5.18;4.70;;;;;;;;;;5074479;28;20456;-58
2022/04/09 11:27:48;;;;;;;4.80;4.40;;;;;;;;;;5074031;28;20453;-46
2022/04/09 11:30:14;;;;;;;5.25;4.85;;;;;;;;;;5071084;28;20029;-47
2022/04/09 11:32:39;;;;;;;4.32;3.92;;;;;;;;;;5073704;28;20115;-48
2022/04/09 11:35:13;;;;;;;4.85;4.45;;;;;;;;;;5075135;28;20146;-58
2022/04/09 11:37:49;;;;;;;4.90;4.50;;;;;;;;;;5077563;28;20101;-47
2022/04/09 11:40:16;;;;;;;4.40;4.00;;;;;;;;;;5079153;28;20122;-59
2022/04/09 11:42:46;;;;;;;4.50;4.18;;;;;;;;;;5079241;28;20024;-46
2022/04/09 11:45:18;;;;;;;4.00;3.70;;;;;;;;;;5074513;28;20450;-46
2022/04/09 11:47:43;;;;;;;4.63;4.22;;;;;;;;;;5074567;28;20434;-46
2022/04/09 11:50:11;;;;;;;5.07;4.68;;;;;;;;;;5076368;28;20067;-46
2022/04/09 11:52:37;;;;;;;4.47;4.15;;;;;;;;;;5078874;28;20036;-46
2022/04/09 11:55:08;;;;;;;4.65;4.25;;;;;;;;;;5075102;28;20086;-59
2022/04/09 11:57:33;;;;;;;5.13;4.72;;;;;;;;;;5078136;28;20461;-59
2022/04/09 11:59:59;;;;;;;6.25;5.85;;;;;;;;;;5072145;28;20032;-59
2022/04/09 12:02:25;;;;;;;5.82;5.43;;;;;;;;;;5070818;28;20040;-59
2022/04/09 12:04:53;;;;;;;6.25;5.85;;;;;;;;;;5073201;28;20032;-47
2022/04/09 12:07:19;;;;;;;4.60;4.20;;;;;;;;;;5074821;28;20036;-58
2022/04/09 12:09:46;;;;;;;6.28;5.78;;;;;;;;;;5074792;28;20380;-61
2022/04/09 12:12:11;;;;;;;6.18;5.72;;;;;;;;;;5060581;28;20107;-60
2022/04/09 12:14:39;;;;;;;5.53;5.13;;;;;;;;;;5073460;28;20036;-61
2022/04/09 12:17:10;;;;;;;6.55;6.05;;;;;;;;;;5069035;28;20043;-47
2022/04/09 12:19:35;;;;;;;5.18;4.78;;;;;;;;;;5064909;28;20481;-59
2022/04/09 12:22:19;;;;;;;5.88;5.47;;;;;;;;;;5070516;28;20043;-58
2022/04/09 12:24:50;;;;;;;6.30;5.90;;;;;;;;;;5076295;28;20606;-47
2022/04/09 12:27:16;;;;;;;5.07;4.68;;;;;;;;;;5067943;28;20124;-59
2022/04/09 12:29:48;;;;;;;4.72;4.32;;;;;;;;;;5077575;28;20028;-57
2022/04/09 12:32:17;;;;;;;5.38;4.88;;;;;;;;;;5058965;28;20096;-47
2022/04/09 12:34:59;;;;;;;5.47;5.07;;;;;;;;;;5090414;28;20127;-46
2022/04/09 12:37:26;;;;;;;6.57;6.05;;;;;;;;;;5071454;28;20079;-59
2022/04/09 12:40:09;;;;;;;6.22;5.82;;;;;;;;;;5070217;28;20140;-59
2022/04/09 12:42:35;;;;;;;5.65;5.25;;;;;;;;;;5065155;28;20036;-59
2022/04/09 12:45:10;;;;;;;7.30;6.80;;;;;;;;;;5073306;28;20063;-59
2022/04/09 12:47:36;;;;;;;12.63;11.82;;;;;;;;;;5072977;28;20511;-59
2022/04/09 12:50:02;;;;;;;6.25;5.85;;;;;;;;;;5074981;28;20032;-46
2022/04/09 12:52:30;;;;;;;9.90;9.30;;;;;;;;;;5081102;28;20078;-59
2022/04/09 12:54:56;;;;;;;12.63;11.90;;;;;;;;;;5070851;28;20083;-60
2022/04/09 12:57:21;;;;;;;26.38;24.88;;;;;;;;;;5074759;28;20044;-59
2022/04/09 12:59:47;;;;;;;17.45;16.48;;;;;;;;;;5074608;28;20046;-47
2022/04/09 13:02:13;;;;;;;34.53;32.72;;;;;;;;;;5076390;28;20090;-47
2022/04/09 13:04:38;;;;;;;24.85;23.52;;;;;;;;;;5075379;28;20040;-50
2022/04/09 13:07:04;;;;;;;23.27;22.02;;;;;;;;;;5077402;28;20035;-51
2022/04/09 13:09:29;;;;;;;30.85;29.15;;;;;;;;;;5075628;28;20031;-47
2022/04/09 13:11:55;;;;;;;33.65;31.92;;;;;;;;;;5074820;28;20046;-50
2022/04/09 13:14:21;;;;;;;20.95;19.80;;;;;;;;;;5075699;28;20036;-48
2022/04/09 13:16:46;;;;;;;24.05;22.75;;;;;;;;;;5075838;28;20129;-49
2022/04/09 13:19:11;;;;;;;31.88;30.23;;;;;;;;;;5074887;28;20028;-48
2022/04/09 13:21:37;;;;;;;16.30;15.32;;;;;;;;;;5073275;28;20032;-49
2022/04/09 13:24:05;;;;;;;13.75;12.95;;;;;;;;;;5075220;28;20032;-59
2022/04/09 13:26:30;;;;;;;27.85;26.38;;;;;;;;;;5073410;28;20024;-59
2022/04/09 13:28:55;;;;;;;31.00;29.40;;;;;;;;;;5076180;28;20123;-59
2022/04/09 13:31:21;;;;;;;25.95;24.58;;;;;;;;;;5074613;28;20342;-59
2022/04/09 13:33:46;;;;;;;25.38;24.00;;;;;;;;;;5069008;28;20041;-47
2022/04/09 13:36:12;;;;;;;30.65;28.98;;;;;;;;;;5064549;28;20028;-60
2022/04/09 13:38:37;;;;;;;29.23;27.73;;;;;;;;;;5069637;28;20033;-48
2022/04/09 13:41:03;;;;;;;29.95;28.35;;;;;;;;;;5075231;28;20036;-47
2022/04/09 13:43:28;;;;;;;28.10;26.60;;;;;;;;;;5073997;28;20025;-47
2022/04/09 13:45:53;;;;;;;30.55;28.95;;;;;;;;;;5077262;28;20043;-47
2022/04/09 13:48:19;;;;;;;27.08;25.67;;;;;;;;;;5075418;28;20032;-47
2022/04/09 13:50:45;;;;;;;16.33;15.43;;;;;;;;;;5074380;28;20511;-47
2022/04/09 13:53:12;;;;;;;17.27;16.15;;;;;;;;;;5070752;28;20094;-59
2022/04/09 13:55:41;;;;;;;16.17;15.25;;;;;;;;;;5071194;28;20374;-59
2022/04/09 13:58:06;;;;;;;23.05;21.85;;;;;;;;;;5068524;28;20041;-47
2022/04/09 14:00:32;;;;;;;23.35;22.13;;;;;;;;;;5073915;28;20374;-48
2022/04/09 14:02:58;;;;;;;16.40;15.50;;;;;;;;;;5073479;28;20036;-48
2022/04/09 14:05:23;;;;;;;14.20;13.40;;;;;;;;;;5070792;28;20291;-47
2022/04/09 14:07:49;;;;;;;18.50;17.50;;;;;;;;;;5071940;28;20035;-51
2022/04/09 14:10:14;;;;;;;12.55;11.85;;;;;;;;;;5069126;28;20412;-59
2022/04/09 14:12:39;;;;;;;16.80;15.77;;;;;;;;;;5070288;28;20134;-59
2022/04/09 14:15:05;;;;;;;7.80;7.30;;;;;;;;;;5073139;28;20040;-58
2022/04/09 14:17:31;;;;;;;8.25;7.75;;;;;;;;;;5069008;28;20166;-59
2022/04/09 14:19:56;;;;;;;8.65;7.93;;;;;;;;;;5073577;28;20043;-59
2022/04/09 14:22:22;;;;;;;7.95;7.45;;;;;;;;;;5069350;28;20046;-58
2022/04/09 14:24:47;;;;;;;9.07;8.40;;;;;;;;;;5069368;28;20033;-59
2022/04/09 14:27:13;;;;;;;9.40;8.80;;;;;;;;;;5068768;28;20060;-46
2022/04/09 14:29:38;;;;;;;20.33;19.23;;;;;;;;;;5071027;28;20070;-60
2022/04/09 14:32:05;;;;;;;19.55;18.45;;;;;;;;;;5069375;28;20036;-60
2022/04/09 14:34:30;;;;;;;21.13;19.98;;;;;;;;;;5072154;28;20024;-60
2022/04/09 14:36:55;;;;;;;19.38;18.27;;;;;;;;;;5069069;28;20037;-59
2022/04/09 14:39:21;;;;;;;10.20;9.50;;;;;;;;;;5072879;28;20044;-59